createdAt,value
2023-04-30T00:00:28.226Z,7.66
2023-04-30T00:01:28.269Z,7.63
2023-04-30T00:02:28.411Z,7.61
2023-04-30T00:03:28.636Z,7.59
2023-04-30T00:04:28.554Z,7.56
2023-04-30T00:05:28.628Z,7.54
2023-04-30T00:06:34.743Z,7.51
2023-04-30T00:07:28.786Z,7.50
2023-04-30T00:08:28.869Z,7.47
2023-04-30T00:09:28.966Z,7.45
2023-04-30T00:10:29.068Z,7.42
2023-04-30T00:11:29.142Z,7.39
2023-04-30T00:12:29.225Z,7.35
2023-04-30T00:13:29.296Z,7.33
2023-04-30T00:14:29.370Z,7.30
2023-04-30T00:15:29.449Z,7.28
2023-04-30T00:16:29.573Z,7.27
2023-04-30T00:17:29.667Z,7.26
2023-04-30T00:18:29.718Z,7.25
2023-04-30T00:19:29.790Z,7.23
2023-04-30T00:20:29.881Z,7.21
2023-04-30T00:21:29.964Z,7.18
2023-04-30T00:22:30.217Z,7.16
2023-04-30T00:23:30.126Z,7.13
2023-04-30T00:24:30.217Z,7.11
2023-04-30T00:25:30.320Z,7.10
2023-04-30T00:26:30.423Z,7.08
2023-04-30T00:27:30.473Z,7.07
2023-04-30T00:28:30.577Z,7.07
2023-04-30T00:29:30.669Z,7.06
2023-04-30T00:30:30.754Z,7.04
2023-04-30T00:31:30.871Z,7.02
2023-04-30T00:32:30.928Z,6.99
2023-04-30T00:33:30.997Z,6.95
2023-04-30T00:34:31.074Z,6.91
2023-04-30T00:35:31.158Z,6.87
2023-04-30T00:36:31.261Z,6.84
2023-04-30T00:37:37.273Z,6.81
2023-04-30T00:38:31.357Z,6.77
2023-04-30T00:39:31.460Z,6.74
2023-04-30T00:40:31.517Z,6.71
2023-04-30T00:41:31.596Z,6.68
2023-04-30T00:42:31.673Z,6.64
2023-04-30T00:43:31.757Z,6.61
2023-04-30T00:44:31.828Z,6.58
2023-04-30T00:45:31.957Z,6.55
2023-04-30T00:46:32.040Z,6.51
2023-04-30T00:47:32.271Z,6.48
2023-04-30T00:48:32.148Z,6.46
2023-04-30T00:49:32.218Z,6.45
2023-04-30T00:50:32.295Z,6.43
2023-04-30T00:51:32.375Z,6.41
2023-04-30T00:52:32.461Z,6.40
2023-04-30T00:53:32.539Z,6.38
2023-04-30T00:54:32.624Z,6.37
2023-04-30T00:55:32.705Z,6.35
2023-04-30T00:56:32.801Z,6.34
2023-04-30T00:57:32.902Z,6.32
2023-04-30T00:58:32.977Z,6.31
2023-04-30T00:59:33.064Z,6.29
2023-04-30T01:00:33.144Z,6.26
2023-04-30T01:01:33.286Z,6.24
2023-04-30T01:02:33.420Z,6.22
2023-04-30T01:03:33.516Z,6.20
2023-04-30T01:04:33.491Z,6.19
2023-04-30T01:05:33.572Z,6.18
2023-04-30T01:06:33.722Z,6.16
2023-04-30T01:07:33.747Z,6.13
2023-04-30T01:08:40.267Z,6.11
2023-04-30T01:09:33.928Z,6.07
2023-04-30T01:10:34.003Z,6.04
2023-04-30T01:11:34.097Z,6.00
2023-04-30T01:12:34.168Z,5.98
2023-04-30T01:13:34.260Z,5.96
2023-04-30T01:14:34.312Z,5.95
2023-04-30T01:15:34.408Z,5.92
2023-04-30T01:16:34.531Z,5.91
2023-04-30T01:17:34.572Z,5.89
2023-04-30T01:18:34.754Z,5.89
2023-04-30T01:19:34.769Z,5.88
2023-04-30T01:20:34.820Z,5.89
2023-04-30T01:21:34.904Z,5.89
2023-04-30T01:22:34.998Z,5.88
2023-04-30T01:23:35.118Z,5.86
2023-04-30T01:24:35.160Z,5.85
2023-04-30T01:25:35.276Z,5.83
2023-04-30T01:26:35.360Z,5.81
2023-04-30T01:27:35.428Z,5.79
2023-04-30T01:28:35.509Z,5.78
2023-04-30T01:29:35.602Z,5.77
2023-04-30T01:30:35.666Z,5.75
2023-04-30T01:31:35.762Z,5.74
2023-04-30T01:32:35.843Z,5.72
2023-04-30T01:33:35.872Z,5.69
2023-04-30T01:34:35.957Z,5.67
2023-04-30T01:35:36.047Z,5.65
2023-04-30T01:36:36.143Z,5.63
2023-04-30T01:37:36.215Z,5.61
2023-04-30T01:38:36.295Z,5.60
2023-04-30T01:39:42.812Z,5.58
2023-04-30T01:40:36.515Z,5.57
2023-04-30T01:41:36.548Z,5.56
2023-04-30T01:42:36.649Z,5.55
2023-04-30T01:43:36.725Z,5.54
2023-04-30T01:44:36.811Z,5.53
2023-04-30T01:45:36.895Z,5.52
2023-04-30T01:46:37.060Z,5.51
2023-04-30T01:47:37.095Z,5.50
2023-04-30T01:48:37.167Z,5.48
2023-04-30T01:49:37.251Z,5.46
2023-04-30T01:50:37.347Z,5.43
2023-04-30T01:51:37.442Z,5.41
2023-04-30T01:52:37.518Z,5.39
2023-04-30T01:53:37.614Z,5.37
2023-04-30T01:54:37.673Z,5.35
2023-04-30T01:55:37.764Z,5.32
2023-04-30T01:56:37.851Z,5.30
2023-04-30T01:57:37.930Z,5.27
2023-04-30T01:58:38.006Z,5.25
2023-04-30T01:59:38.106Z,5.23
2023-04-30T02:00:38.204Z,5.21
2023-04-30T02:01:38.350Z,5.18
2023-04-30T02:02:38.526Z,5.16
2023-04-30T02:03:38.660Z,5.13
2023-04-30T02:04:38.548Z,5.10
2023-04-30T02:05:38.602Z,5.07
2023-04-30T02:06:38.792Z,5.05
2023-04-30T02:07:38.763Z,5.02
2023-04-30T02:08:38.836Z,4.99
2023-04-30T02:09:38.940Z,4.97
2023-04-30T02:10:45.489Z,4.96
2023-04-30T02:11:39.098Z,4.94
2023-04-30T02:12:39.182Z,4.93
2023-04-30T02:13:39.273Z,4.92
2023-04-30T02:14:39.370Z,4.91
2023-04-30T02:15:39.447Z,4.90
2023-04-30T02:16:39.595Z,4.88
2023-04-30T02:17:39.663Z,4.86
2023-04-30T02:18:39.704Z,4.84
2023-04-30T02:19:39.790Z,4.83
2023-04-30T02:20:39.876Z,4.81
2023-04-30T02:21:40.001Z,4.80
2023-04-30T02:22:40.037Z,4.78
2023-04-30T02:23:40.112Z,4.78
2023-04-30T02:24:40.184Z,4.76
2023-04-30T02:25:40.269Z,4.75
2023-04-30T02:26:40.371Z,4.74
2023-04-30T02:27:40.437Z,4.73
2023-04-30T02:28:40.520Z,4.72
2023-04-30T02:29:40.597Z,4.70
2023-04-30T02:30:40.676Z,4.68
2023-04-30T02:31:40.855Z,4.66
2023-04-30T02:32:40.888Z,4.64
2023-04-30T02:33:40.904Z,4.62
2023-04-30T02:34:40.987Z,4.60
2023-04-30T02:35:41.105Z,4.59
2023-04-30T02:36:41.159Z,4.59
2023-04-30T02:37:41.262Z,4.58
2023-04-30T02:38:41.345Z,4.57
2023-04-30T02:39:41.432Z,4.56
2023-04-30T02:40:41.530Z,4.56
2023-04-30T02:41:48.460Z,4.56
2023-04-30T02:42:41.686Z,4.55
2023-04-30T02:43:41.765Z,4.52
2023-04-30T02:44:41.859Z,4.50
2023-04-30T02:45:41.966Z,4.48
2023-04-30T02:46:42.024Z,4.46
2023-04-30T02:47:42.134Z,4.43
2023-04-30T02:48:42.200Z,4.40
2023-04-30T02:49:42.286Z,4.37
2023-04-30T02:50:42.377Z,4.34
2023-04-30T02:51:42.470Z,4.31
2023-04-30T02:52:42.511Z,4.30
2023-04-30T02:53:42.714Z,4.28
2023-04-30T02:54:42.698Z,4.25
2023-04-30T02:55:42.752Z,4.23
2023-04-30T02:56:42.835Z,4.20
2023-04-30T02:57:42.903Z,4.19
2023-04-30T02:58:43.005Z,4.17
2023-04-30T02:59:43.064Z,4.15
2023-04-30T03:00:43.149Z,4.14
2023-04-30T03:01:43.289Z,4.13
2023-04-30T03:02:43.496Z,4.12
2023-04-30T03:03:43.433Z,4.11
2023-04-30T03:04:43.476Z,4.10
2023-04-30T03:05:43.555Z,4.09
2023-04-30T03:06:43.736Z,4.07
2023-04-30T03:07:43.776Z,4.06
2023-04-30T03:08:43.822Z,4.05
2023-04-30T03:09:43.932Z,4.05
2023-04-30T03:10:44.008Z,4.04
2023-04-30T03:11:44.102Z,4.03
2023-04-30T03:12:50.646Z,4.02
2023-04-30T03:13:44.262Z,4.00
2023-04-30T03:14:44.363Z,3.98
2023-04-30T03:15:44.462Z,3.96
2023-04-30T03:16:44.568Z,3.95
2023-04-30T03:17:46.118Z,3.94
2023-04-30T03:18:44.691Z,3.92
2023-04-30T03:19:44.755Z,3.90
2023-04-30T03:20:44.839Z,3.88
2023-04-30T03:21:44.974Z,3.87
2023-04-30T03:22:45.077Z,3.86
2023-04-30T03:23:45.122Z,3.86
2023-04-30T03:24:45.249Z,3.85
2023-04-30T03:25:45.299Z,3.84
2023-04-30T03:26:45.393Z,3.84
2023-04-30T03:27:45.487Z,3.84
2023-04-30T03:28:45.564Z,3.84
2023-04-30T03:29:45.646Z,3.84
2023-04-30T03:30:45.775Z,3.83
2023-04-30T03:31:45.858Z,3.81
2023-04-30T03:32:45.954Z,3.78
2023-04-30T03:33:46.008Z,3.77
2023-04-30T03:34:46.074Z,3.76
2023-04-30T03:35:46.180Z,3.75
2023-04-30T03:36:46.266Z,3.75
2023-04-30T03:37:46.318Z,3.74
2023-04-30T03:38:46.398Z,3.73
2023-04-30T03:39:46.483Z,3.72
2023-04-30T03:40:46.570Z,3.72
2023-04-30T03:41:46.646Z,3.72
2023-04-30T03:42:47.720Z,3.72
2023-04-30T03:43:52.779Z,3.72
2023-04-30T03:44:46.892Z,3.71
2023-04-30T03:45:46.983Z,3.71
2023-04-30T03:46:47.062Z,3.71
2023-04-30T03:47:47.169Z,3.71
2023-04-30T03:48:47.228Z,3.70
2023-04-30T03:49:47.310Z,3.69
2023-04-30T03:50:47.397Z,3.69
2023-04-30T03:51:47.488Z,3.69
2023-04-30T03:52:47.565Z,3.70
2023-04-30T03:53:47.648Z,3.68
2023-04-30T03:54:47.738Z,3.66
2023-04-30T03:55:47.833Z,3.64
2023-04-30T03:56:48.403Z,3.63
2023-04-30T03:57:47.984Z,3.60
2023-04-30T03:58:48.079Z,3.57
2023-04-30T03:59:48.156Z,3.55
2023-04-30T04:00:48.254Z,3.53
2023-04-30T04:01:48.359Z,3.53
2023-04-30T04:02:48.426Z,3.53
2023-04-30T04:03:48.532Z,3.53
2023-04-30T04:04:48.610Z,3.55
2023-04-30T04:05:48.699Z,3.58
2023-04-30T04:06:48.800Z,3.62
2023-04-30T04:07:48.851Z,3.64
2023-04-30T04:08:48.940Z,3.64
2023-04-30T04:09:49.022Z,3.65
2023-04-30T04:10:49.108Z,3.66
2023-04-30T04:11:49.189Z,3.67
2023-04-30T04:12:49.271Z,3.68
2023-04-30T04:13:49.344Z,3.69
2023-04-30T04:14:55.437Z,3.71
2023-04-30T04:15:49.580Z,3.73
2023-04-30T04:16:49.596Z,3.75
2023-04-30T04:17:49.736Z,3.76
2023-04-30T04:18:49.759Z,3.77
2023-04-30T04:19:49.850Z,3.77
2023-04-30T04:20:49.938Z,3.78
2023-04-30T04:21:50.027Z,3.79
2023-04-30T04:22:50.133Z,3.81
2023-04-30T04:23:50.179Z,3.81
2023-04-30T04:24:50.239Z,3.80
2023-04-30T04:25:50.313Z,3.79
2023-04-30T04:26:50.387Z,3.79
2023-04-30T04:27:50.475Z,3.79
2023-04-30T04:28:50.561Z,3.78
2023-04-30T04:29:50.666Z,3.77
2023-04-30T04:30:50.722Z,3.75
2023-04-30T04:31:50.847Z,3.75
2023-04-30T04:32:50.934Z,3.76
2023-04-30T04:33:50.936Z,3.77
2023-04-30T04:34:51.013Z,3.77
2023-04-30T04:35:51.098Z,3.78
2023-04-30T04:36:51.195Z,3.81
2023-04-30T04:37:51.271Z,3.84
2023-04-30T04:38:51.369Z,3.87
2023-04-30T04:39:51.483Z,3.91
2023-04-30T04:40:51.530Z,3.95
2023-04-30T04:41:51.621Z,4.00
2023-04-30T04:42:51.704Z,4.06
2023-04-30T04:43:51.806Z,4.09
2023-04-30T04:44:51.869Z,4.10
2023-04-30T04:45:57.972Z,4.11
2023-04-30T04:46:52.103Z,4.12
2023-04-30T04:47:52.288Z,4.14
2023-04-30T04:48:52.192Z,4.16
2023-04-30T04:49:52.371Z,4.18
2023-04-30T04:50:52.342Z,4.21
2023-04-30T04:51:52.440Z,4.24
2023-04-30T04:52:52.550Z,4.27
2023-04-30T04:53:52.616Z,4.28
2023-04-30T04:54:52.710Z,4.28
2023-04-30T04:55:52.780Z,4.30
2023-04-30T04:56:52.867Z,4.33
2023-04-30T04:57:52.950Z,4.36
2023-04-30T04:58:53.057Z,4.39
2023-04-30T04:59:53.374Z,4.41
2023-04-30T05:00:53.236Z,4.42
2023-04-30T05:01:53.378Z,4.45
2023-04-30T05:02:53.511Z,4.48
2023-04-30T05:03:53.517Z,4.51
2023-04-30T05:04:53.552Z,4.57
2023-04-30T05:05:53.635Z,4.66
2023-04-30T05:06:53.720Z,4.77
2023-04-30T05:07:53.809Z,4.91
2023-04-30T05:08:53.895Z,5.05
2023-04-30T05:09:54.434Z,5.21
2023-04-30T05:10:54.061Z,5.36
2023-04-30T05:11:54.138Z,5.52
2023-04-30T05:12:54.221Z,5.66
2023-04-30T05:13:54.279Z,5.79
2023-04-30T05:14:54.367Z,5.86
2023-04-30T05:15:54.492Z,5.92
2023-04-30T05:17:00.536Z,5.96
2023-04-30T05:17:54.675Z,5.96
2023-04-30T05:18:54.701Z,5.97
2023-04-30T05:19:55.238Z,6.02
2023-04-30T05:20:54.872Z,6.07
2023-04-30T05:21:54.958Z,6.14
2023-04-30T05:22:55.028Z,6.23
2023-04-30T05:23:55.122Z,6.35
2023-04-30T05:24:55.211Z,6.45
2023-04-30T05:25:55.298Z,6.51
2023-04-30T05:26:55.385Z,6.55
2023-04-30T05:27:55.455Z,6.59
2023-04-30T05:28:55.526Z,6.67
2023-04-30T05:29:55.945Z,6.82
2023-04-30T05:30:55.723Z,6.95
2023-04-30T05:31:55.828Z,7.01
2023-04-30T05:32:55.950Z,7.02
2023-04-30T05:33:55.944Z,7.01
2023-04-30T05:34:55.998Z,6.98
2023-04-30T05:35:56.090Z,7.04
2023-04-30T05:36:56.163Z,7.13
2023-04-30T05:37:56.229Z,7.20
2023-04-30T05:38:56.327Z,7.29
2023-04-30T05:39:56.653Z,7.40
2023-04-30T05:40:56.498Z,7.52
2023-04-30T05:41:56.640Z,7.58
2023-04-30T05:42:56.658Z,7.57
2023-04-30T05:43:56.716Z,7.53
2023-04-30T05:44:56.774Z,7.45
2023-04-30T05:45:56.940Z,7.36
2023-04-30T05:46:56.926Z,7.28
2023-04-30T05:48:03.089Z,7.26
2023-04-30T05:48:57.079Z,7.24
2023-04-30T05:49:57.212Z,7.24
2023-04-30T05:50:57.241Z,7.33
2023-04-30T05:51:57.328Z,7.48
2023-04-30T05:52:57.413Z,7.55
2023-04-30T05:53:57.526Z,7.54
2023-04-30T05:54:57.584Z,7.51
2023-04-30T05:55:57.672Z,7.48
2023-04-30T05:56:57.780Z,7.43
2023-04-30T05:57:57.813Z,7.41
2023-04-30T05:58:57.912Z,7.37
2023-04-30T05:59:58.003Z,7.34
2023-04-30T06:00:58.067Z,7.35
2023-04-30T06:01:58.250Z,7.42
2023-04-30T06:02:58.323Z,7.51
2023-04-30T06:03:58.348Z,7.57
2023-04-30T06:04:58.455Z,7.56
2023-04-30T06:05:58.539Z,7.49
2023-04-30T06:06:58.586Z,7.41
2023-04-30T06:07:58.670Z,7.33
2023-04-30T06:08:58.766Z,7.28
2023-04-30T06:09:58.920Z,7.23
2023-04-30T06:10:58.929Z,7.18
2023-04-30T06:11:59.002Z,7.18
2023-04-30T06:12:59.083Z,7.25
2023-04-30T06:13:59.176Z,7.40
2023-04-30T06:14:59.256Z,7.61
2023-04-30T06:15:59.435Z,7.82
2023-04-30T06:16:59.464Z,7.99
2023-04-30T06:17:59.554Z,8.10
2023-04-30T06:19:05.625Z,8.25
2023-04-30T06:19:59.661Z,8.41
2023-04-30T06:20:59.754Z,8.55
2023-04-30T06:21:59.839Z,8.72
2023-04-30T06:22:59.946Z,8.89
2023-04-30T06:23:59.971Z,9.00
2023-04-30T06:25:00.059Z,9.02
2023-04-30T06:26:00.148Z,8.94
2023-04-30T06:27:00.235Z,8.76
2023-04-30T06:28:00.317Z,8.68
2023-04-30T06:29:00.369Z,8.80
2023-04-30T06:30:00.458Z,8.87
2023-04-30T06:31:00.582Z,8.72
2023-04-30T06:32:00.616Z,8.40
2023-04-30T06:33:00.767Z,8.11
2023-04-30T06:34:00.768Z,7.86
2023-04-30T06:35:00.850Z,7.66
2023-04-30T06:36:00.954Z,7.67
2023-04-30T06:37:01.037Z,7.86
2023-04-30T06:38:01.123Z,8.04
2023-04-30T06:39:01.225Z,8.26
2023-04-30T06:40:01.263Z,8.39
2023-04-30T06:41:01.349Z,8.41
2023-04-30T06:42:01.438Z,8.41
2023-04-30T06:43:01.510Z,8.54
2023-04-30T06:44:01.570Z,8.84
2023-04-30T06:45:01.656Z,9.19
2023-04-30T06:46:01.782Z,9.44
2023-04-30T06:47:01.854Z,9.56
2023-04-30T06:48:01.961Z,9.62
2023-04-30T06:49:02.006Z,9.82
2023-04-30T06:50:08.559Z,9.97
2023-04-30T06:51:02.186Z,10.05
2023-04-30T06:52:02.261Z,10.20
2023-04-30T06:53:02.337Z,10.43
2023-04-30T06:54:02.468Z,10.68
2023-04-30T06:55:02.545Z,10.96
2023-04-30T06:56:02.614Z,11.12
2023-04-30T06:57:02.709Z,11.23
2023-04-30T06:58:02.768Z,11.29
2023-04-30T06:59:02.861Z,11.33
2023-04-30T07:00:03.007Z,11.36
2023-04-30T07:01:03.057Z,11.45
2023-04-30T07:02:03.090Z,11.59
2023-04-30T07:03:03.308Z,11.82
2023-04-30T07:04:03.290Z,12.14
2023-04-30T07:05:03.334Z,12.35
2023-04-30T07:06:03.421Z,12.50
2023-04-30T07:07:03.509Z,12.67
2023-04-30T07:08:03.585Z,12.79
2023-04-30T07:09:03.709Z,12.86
2023-04-30T07:10:03.765Z,12.88
2023-04-30T07:11:03.827Z,12.76
2023-04-30T07:12:03.921Z,12.61
2023-04-30T07:13:03.999Z,12.46
2023-04-30T07:14:04.086Z,12.16
2023-04-30T07:15:04.202Z,12.02
2023-04-30T07:16:04.263Z,12.19
2023-04-30T07:17:04.338Z,12.51
2023-04-30T07:18:04.600Z,12.78
2023-04-30T07:19:04.510Z,13.02
2023-04-30T07:20:04.634Z,13.22
2023-04-30T07:21:11.156Z,13.45
2023-04-30T07:22:04.768Z,13.71
2023-04-30T07:23:04.857Z,14.02
2023-04-30T07:24:04.959Z,13.97
2023-04-30T07:25:05.064Z,13.76
2023-04-30T07:26:05.117Z,13.74
2023-04-30T07:27:05.229Z,13.86
2023-04-30T07:28:05.325Z,13.91
2023-04-30T07:29:05.404Z,13.93
2023-04-30T07:30:05.512Z,13.96
2023-04-30T07:31:05.581Z,13.90
2023-04-30T07:32:05.653Z,13.94
2023-04-30T07:33:05.785Z,14.14
2023-04-30T07:34:05.813Z,14.16
2023-04-30T07:35:05.905Z,13.92
2023-04-30T07:36:06.087Z,13.74
2023-04-30T07:37:06.095Z,13.75
2023-04-30T07:38:06.185Z,13.87
2023-04-30T07:39:06.258Z,14.04
2023-04-30T07:40:06.334Z,14.02
2023-04-30T07:41:06.437Z,14.00
2023-04-30T07:42:06.496Z,14.08
2023-04-30T07:43:06.586Z,14.20
2023-04-30T07:44:06.688Z,14.15
2023-04-30T07:45:06.788Z,14.03
2023-04-30T07:46:06.945Z,14.15
2023-04-30T07:47:06.935Z,14.53
2023-04-30T07:48:07.088Z,14.73
2023-04-30T07:49:07.085Z,14.75
2023-04-30T07:50:07.180Z,14.80
2023-04-30T07:51:07.299Z,15.00
2023-04-30T07:52:13.892Z,15.33
2023-04-30T07:53:07.432Z,15.44
2023-04-30T07:54:07.536Z,15.51
2023-04-30T07:55:07.626Z,15.85
2023-04-30T07:56:07.736Z,16.25
2023-04-30T07:57:07.788Z,16.65
2023-04-30T07:58:07.853Z,16.89
2023-04-30T07:59:07.942Z,16.91
2023-04-30T08:00:08.037Z,16.92
2023-04-30T08:01:08.172Z,16.92
2023-04-30T08:02:08.253Z,16.80
2023-04-30T08:03:08.334Z,16.71
2023-04-30T08:04:08.453Z,16.75
2023-04-30T08:05:08.439Z,16.69
2023-04-30T08:06:08.565Z,16.39
2023-04-30T08:07:08.616Z,15.95
2023-04-30T08:08:08.670Z,15.31
2023-04-30T08:09:08.788Z,14.51
2023-04-30T08:10:08.838Z,14.07
2023-04-30T08:11:08.924Z,14.12
2023-04-30T08:12:09.002Z,14.18
2023-04-30T08:13:09.058Z,14.26
2023-04-30T08:14:09.123Z,14.57
2023-04-30T08:15:09.225Z,15.08
2023-04-30T08:16:09.359Z,15.47
2023-04-30T08:17:09.386Z,15.79
2023-04-30T08:18:09.578Z,15.92
2023-04-30T08:19:09.555Z,15.88
2023-04-30T08:20:09.616Z,15.90
2023-04-30T08:21:09.705Z,15.97
2023-04-30T08:22:09.789Z,16.17
2023-04-30T08:23:15.866Z,16.49
2023-04-30T08:24:09.952Z,16.86
2023-04-30T08:25:10.049Z,17.33
2023-04-30T08:26:10.139Z,17.72
2023-04-30T08:27:10.241Z,17.84
2023-04-30T08:28:10.303Z,17.62
2023-04-30T08:29:10.377Z,17.33
2023-04-30T08:30:10.424Z,17.00
2023-04-30T08:31:10.520Z,16.65
2023-04-30T08:32:10.689Z,16.59
2023-04-30T08:33:10.761Z,16.58
2023-04-30T08:34:10.750Z,16.45
2023-04-30T08:35:10.846Z,16.25
2023-04-30T08:36:10.941Z,15.89
2023-04-30T08:37:11.031Z,15.74
2023-04-30T08:38:11.149Z,15.85
2023-04-30T08:39:11.199Z,16.02
2023-04-30T08:40:11.303Z,16.16
2023-04-30T08:41:11.397Z,16.34
2023-04-30T08:42:11.437Z,16.68
2023-04-30T08:43:11.567Z,17.07
2023-04-30T08:44:11.628Z,17.45
2023-04-30T08:45:11.724Z,17.70
2023-04-30T08:46:11.838Z,17.61
2023-04-30T08:47:11.913Z,17.37
2023-04-30T08:48:12.013Z,17.26
2023-04-30T08:49:12.074Z,17.13
2023-04-30T08:50:12.177Z,16.85
2023-04-30T08:51:12.246Z,16.79
2023-04-30T08:52:12.323Z,16.96
2023-04-30T08:53:12.385Z,17.13
2023-04-30T08:54:18.630Z,17.15
2023-04-30T08:55:12.560Z,16.98
2023-04-30T08:56:12.660Z,16.67
2023-04-30T08:57:12.735Z,16.28
2023-04-30T08:58:12.823Z,16.15
2023-04-30T08:59:12.948Z,16.40
2023-04-30T09:00:13.020Z,16.74
2023-04-30T09:01:13.125Z,16.87
2023-04-30T09:02:13.213Z,16.84
2023-04-30T09:03:13.313Z,16.88
2023-04-30T09:04:13.535Z,16.82
2023-04-30T09:05:13.388Z,16.68
2023-04-30T09:06:13.491Z,16.42
2023-04-30T09:07:13.531Z,16.22
2023-04-30T09:08:13.611Z,16.43
2023-04-30T09:09:13.714Z,16.72
2023-04-30T09:10:13.792Z,16.89
2023-04-30T09:11:13.890Z,16.96
2023-04-30T09:12:15.237Z,17.03
2023-04-30T09:13:14.042Z,17.30
2023-04-30T09:14:14.118Z,17.69
2023-04-30T09:15:14.217Z,17.94
2023-04-30T09:16:14.329Z,18.09
2023-04-30T09:17:14.339Z,18.31
2023-04-30T09:18:14.578Z,18.53
2023-04-30T09:19:14.516Z,18.48
2023-04-30T09:20:14.640Z,18.29
2023-04-30T09:21:14.682Z,18.21
2023-04-30T09:22:14.768Z,18.18
2023-04-30T09:23:14.858Z,18.24
2023-04-30T09:24:16.087Z,18.47
2023-04-30T09:25:21.239Z,18.46
2023-04-30T09:26:15.085Z,18.05
2023-04-30T09:27:15.175Z,17.79
2023-04-30T09:28:15.277Z,17.78
2023-04-30T09:29:15.383Z,17.68
2023-04-30T09:30:15.466Z,17.66
2023-04-30T09:31:15.562Z,17.91
2023-04-30T09:32:15.620Z,18.24
2023-04-30T09:33:15.717Z,18.34
2023-04-30T09:34:15.804Z,18.31
2023-04-30T09:35:15.902Z,18.28
2023-04-30T09:36:16.006Z,18.10
2023-04-30T09:37:16.053Z,17.86
2023-04-30T09:38:16.143Z,17.90
2023-04-30T09:39:16.371Z,18.21
2023-04-30T09:40:16.397Z,18.51
2023-04-30T09:41:16.389Z,18.25
2023-04-30T09:42:16.462Z,17.57
2023-04-30T09:43:16.542Z,16.77
2023-04-30T09:44:16.630Z,16.01
2023-04-30T09:45:16.729Z,15.60
2023-04-30T09:46:16.849Z,15.76
2023-04-30T09:47:16.921Z,16.31
2023-04-30T09:48:18.073Z,16.85
2023-04-30T09:49:17.051Z,17.25
2023-04-30T09:50:17.140Z,17.67
2023-04-30T09:51:17.238Z,18.21
2023-04-30T09:52:17.380Z,18.74
2023-04-30T09:53:17.418Z,19.24
2023-04-30T09:54:17.520Z,19.61
2023-04-30T09:55:17.606Z,19.64
2023-04-30T09:56:24.190Z,19.63
2023-04-30T09:57:17.835Z,19.49
2023-04-30T09:58:17.853Z,19.16
2023-04-30T09:59:17.952Z,18.99
2023-04-30T10:00:18.058Z,19.06
2023-04-30T10:01:18.176Z,19.18
2023-04-30T10:02:18.205Z,19.15
2023-04-30T10:03:18.289Z,19.06
2023-04-30T10:04:18.421Z,19.09
2023-04-30T10:05:18.435Z,19.15
2023-04-30T10:06:18.571Z,18.93
2023-04-30T10:07:20.866Z,18.56
2023-04-30T10:08:18.673Z,18.30
2023-04-30T10:09:18.758Z,18.28
2023-04-30T10:10:18.860Z,18.47
2023-04-30T10:11:18.946Z,18.69
2023-04-30T10:12:19.032Z,18.95
2023-04-30T10:13:19.079Z,19.31
2023-04-30T10:14:19.141Z,19.70
2023-04-30T10:15:19.230Z,20.13
2023-04-30T10:16:19.376Z,20.30
2023-04-30T10:17:19.408Z,20.08
2023-04-30T10:18:19.471Z,19.82
2023-04-30T10:19:19.578Z,19.71
2023-04-30T10:20:19.702Z,19.73
2023-04-30T10:21:19.750Z,19.68
2023-04-30T10:22:19.838Z,19.52
2023-04-30T10:23:19.975Z,19.24
2023-04-30T10:24:20.032Z,18.95
2023-04-30T10:25:20.127Z,18.44
2023-04-30T10:26:20.248Z,17.99
2023-04-30T10:27:27.707Z,17.76
2023-04-30T10:28:20.392Z,17.70
2023-04-30T10:29:20.457Z,17.92
2023-04-30T10:30:20.519Z,18.22
2023-04-30T10:31:20.605Z,18.59
2023-04-30T10:32:20.742Z,18.96
2023-04-30T10:33:20.838Z,19.17
2023-04-30T10:34:20.865Z,19.35
2023-04-30T10:35:20.965Z,19.47
2023-04-30T10:36:21.013Z,19.48
2023-04-30T10:37:21.097Z,19.35
2023-04-30T10:38:21.190Z,19.27
2023-04-30T10:39:21.297Z,19.43
2023-04-30T10:40:21.351Z,19.72
2023-04-30T10:41:21.468Z,19.85
2023-04-30T10:42:21.507Z,19.95
2023-04-30T10:43:21.602Z,19.79
2023-04-30T10:44:21.720Z,19.14
2023-04-30T10:45:21.787Z,18.62
2023-04-30T10:46:21.923Z,18.54
2023-04-30T10:47:21.983Z,18.73
2023-04-30T10:48:22.044Z,19.05
2023-04-30T10:49:22.134Z,19.39
2023-04-30T10:50:22.195Z,19.48
2023-04-30T10:51:22.283Z,19.45
2023-04-30T10:52:22.339Z,19.52
2023-04-30T10:53:22.439Z,19.53
2023-04-30T10:54:22.497Z,19.53
2023-04-30T10:55:22.590Z,19.53
2023-04-30T10:56:22.695Z,19.47
2023-04-30T10:57:22.804Z,19.29
2023-04-30T10:58:28.872Z,19.12
2023-04-30T10:59:22.912Z,19.19
2023-04-30T11:00:23.015Z,19.19
2023-04-30T11:01:23.124Z,18.84
2023-04-30T11:02:23.266Z,18.59
2023-04-30T11:03:23.268Z,18.65
2023-04-30T11:04:23.411Z,18.87
2023-04-30T11:05:23.439Z,19.19
2023-04-30T11:06:23.511Z,19.61
2023-04-30T11:07:23.570Z,19.82
2023-04-30T11:08:23.679Z,19.75
2023-04-30T11:09:23.736Z,19.46
2023-04-30T11:10:23.866Z,19.24
2023-04-30T11:11:23.995Z,18.81
2023-04-30T11:12:23.981Z,18.36
2023-04-30T11:13:24.062Z,18.19
2023-04-30T11:14:24.163Z,17.97
2023-04-30T11:15:24.265Z,17.87
2023-04-30T11:16:24.332Z,17.89
2023-04-30T11:17:24.433Z,17.97
2023-04-30T11:18:24.479Z,18.18
2023-04-30T11:19:24.585Z,18.50
2023-04-30T11:20:24.671Z,18.91
2023-04-30T11:21:24.774Z,19.33
2023-04-30T11:22:24.868Z,19.65
2023-04-30T11:23:32.277Z,19.88
2023-04-30T11:24:26.175Z,19.88
2023-04-30T11:25:25.126Z,19.79
2023-04-30T11:26:25.225Z,19.82
2023-04-30T11:27:25.321Z,19.83
2023-04-30T11:28:25.412Z,19.63
2023-04-30T11:29:31.552Z,19.52
2023-04-30T11:30:25.661Z,19.64
2023-04-30T11:31:25.721Z,19.81
2023-04-30T11:32:25.766Z,20.01
2023-04-30T11:33:25.808Z,20.22
2023-04-30T11:34:25.913Z,20.39
2023-04-30T11:35:25.977Z,20.40
2023-04-30T11:36:26.080Z,20.13
2023-04-30T11:37:26.159Z,19.74
2023-04-30T11:38:26.237Z,19.55
2023-04-30T11:39:26.329Z,19.60
2023-04-30T11:40:26.396Z,19.84
2023-04-30T11:41:26.494Z,20.11
2023-04-30T11:42:26.600Z,20.02
2023-04-30T11:43:26.694Z,19.89
2023-04-30T11:44:26.748Z,19.99
2023-04-30T11:45:26.858Z,20.00
2023-04-30T11:46:26.948Z,19.48
2023-04-30T11:47:27.095Z,18.93
2023-04-30T11:48:27.122Z,18.90
2023-04-30T11:49:27.221Z,19.26
2023-04-30T11:50:27.469Z,19.68
2023-04-30T11:51:27.394Z,19.67
2023-04-30T11:52:27.486Z,19.39
2023-04-30T11:53:27.548Z,19.19
2023-04-30T11:54:27.641Z,19.24
2023-04-30T11:55:27.765Z,19.50
2023-04-30T11:56:27.811Z,19.74
2023-04-30T11:57:27.918Z,19.90
2023-04-30T11:58:27.956Z,20.09
2023-04-30T11:59:28.096Z,20.32
2023-04-30T12:00:34.135Z,20.59
2023-04-30T12:01:28.216Z,20.91
2023-04-30T12:02:28.401Z,21.29
2023-04-30T12:03:28.457Z,21.53
2023-04-30T12:04:28.563Z,21.60
2023-04-30T12:05:28.549Z,21.47
2023-04-30T12:06:28.707Z,21.29
2023-04-30T12:07:28.706Z,21.17
2023-04-30T12:08:28.785Z,21.01
2023-04-30T12:09:28.847Z,20.74
2023-04-30T12:10:28.944Z,20.51
2023-04-30T12:11:29.026Z,20.47
2023-04-30T12:12:29.126Z,20.70
2023-04-30T12:13:29.228Z,21.05
2023-04-30T12:14:29.274Z,21.39
2023-04-30T12:15:29.369Z,21.59
2023-04-30T12:16:29.482Z,21.40
2023-04-30T12:17:29.575Z,21.17
2023-04-30T12:18:29.650Z,21.08
2023-04-30T12:19:29.747Z,20.97
2023-04-30T12:20:29.843Z,21.01
2023-04-30T12:21:29.932Z,21.08
2023-04-30T12:22:30.030Z,21.03
2023-04-30T12:23:30.132Z,20.97
2023-04-30T12:24:30.176Z,21.10
2023-04-30T12:25:30.274Z,21.40
2023-04-30T12:26:30.369Z,21.62
2023-04-30T12:27:30.460Z,21.58
2023-04-30T12:28:30.561Z,21.32
2023-04-30T12:29:30.616Z,21.07
2023-04-30T12:30:30.719Z,20.96
2023-04-30T12:31:37.351Z,21.06
2023-04-30T12:32:30.975Z,21.24
2023-04-30T12:33:30.972Z,21.46
2023-04-30T12:34:33.504Z,21.47
2023-04-30T12:35:31.206Z,21.37
2023-04-30T12:36:31.243Z,21.25
2023-04-30T12:37:31.337Z,21.16
2023-04-30T12:38:31.448Z,21.20
2023-04-30T12:39:31.541Z,21.03
2023-04-30T12:40:31.594Z,20.49
2023-04-30T12:41:31.677Z,20.13
2023-04-30T12:42:31.772Z,19.86
2023-04-30T12:43:31.865Z,19.38
2023-04-30T12:44:32.001Z,19.02
2023-04-30T12:45:32.027Z,18.94
2023-04-30T12:46:32.122Z,18.74
2023-04-30T12:47:32.245Z,18.40
2023-04-30T12:48:32.322Z,18.34
2023-04-30T12:49:32.447Z,18.49
2023-04-30T12:50:32.465Z,18.58
2023-04-30T12:51:32.526Z,18.80
2023-04-30T12:52:32.647Z,18.98
2023-04-30T12:53:32.784Z,18.84
2023-04-30T12:54:32.879Z,18.72
2023-04-30T12:55:32.895Z,18.96
2023-04-30T12:56:33.002Z,19.41
2023-04-30T12:57:33.066Z,19.58
2023-04-30T12:58:33.152Z,19.69
2023-04-30T12:59:33.252Z,19.91
2023-04-30T13:00:33.336Z,20.18
2023-04-30T13:01:33.420Z,20.52
2023-04-30T13:02:39.481Z,20.83
2023-04-30T13:03:33.646Z,21.02
2023-04-30T13:04:33.606Z,21.06
2023-04-30T13:05:33.699Z,20.94
2023-04-30T13:06:33.843Z,20.92